sensor_id;sensor_type;location;lat;lon;timestamp;pressure;altitude;pressure_sealevel;temperature;humidity
61870;BME280;47810;42.264;23.826;2023-02-13T00:01:15;95494.56;;;-1.02;68.94
61870;BME280;47810;42.264;23.826;2023-02-13T00:03:41;95500.59;;;-1.04;69.65
61870;BME280;47810;42.264;23.826;2023-02-13T00:06:08;95502.34;;;-0.97;69.67
61870;BME280;47810;42.264;23.826;2023-02-13T00:08:34;95505.97;;;-0.71;69.33
61870;BME280;47810;42.264;23.826;2023-02-13T00:11:00;95500.72;;;-0.80;69.09
61870;BME280;47810;42.264;23.826;2023-02-13T00:13:25;95505.97;;;-0.71;68.92
61870;BME280;47810;42.264;23.826;2023-02-13T00:15:55;95499.94;;;-0.60;68.56
61870;BME280;47810;42.264;23.826;2023-02-13T00:18:20;95498.13;;;-0.78;69.26
61870;BME280;47810;42.264;23.826;2023-02-13T00:20:55;95498.91;;;-0.90;70.25
61870;BME280;47810;42.264;23.826;2023-02-13T00:23:20;95501.44;;;-1.07;69.74
61870;BME280;47810;42.264;23.826;2023-02-13T00:25:46;95494.50;;;-1.11;70.17
61870;BME280;47810;42.264;23.826;2023-02-13T00:28:12;95499.66;;;-1.17;70.67
61870;BME280;47810;42.264;23.826;2023-02-13T00:30:38;95499.69;;;-1.15;71.26
61870;BME280;47810;42.264;23.826;2023-02-13T00:33:05;95493.63;;;-1.14;71.58
61870;BME280;47810;42.264;23.826;2023-02-13T00:35:30;95491.09;;;-1.04;70.65
61870;BME280;47810;42.264;23.826;2023-02-13T00:37:56;95491.94;;;-1.06;70.58
61870;BME280;47810;42.264;23.826;2023-02-13T00:40:21;95491.13;;;-0.98;71.22
61870;BME280;47810;42.264;23.826;2023-02-13T00:42:47;95488.72;;;-0.56;70.64
61870;BME280;47810;42.264;23.826;2023-02-13T00:45:12;95486.06;;;-0.70;70.21
61870;BME280;47810;42.264;23.826;2023-02-13T00:47:38;95474.72;;;-0.92;70.75
61870;BME280;47810;42.264;23.826;2023-02-13T00:50:03;95495.50;;;-0.89;70.37
61870;BME280;47810;42.264;23.826;2023-02-13T00:52:29;95491.25;;;-0.73;70.24
61870;BME280;47810;42.264;23.826;2023-02-13T00:54:55;95497.34;;;-0.60;69.88
61870;BME280;47810;42.264;23.826;2023-02-13T00:57:20;95501.53;;;-0.88;70.38
61870;BME280;47810;42.264;23.826;2023-02-13T00:59:45;95498.03;;;-0.97;71.25
61870;BME280;47810;42.264;23.826;2023-02-13T01:02:11;95497.31;;;-0.69;71.02
61870;BME280;47810;42.264;23.826;2023-02-13T01:04:36;95505.03;;;-0.77;70.94
61870;BME280;47810;42.264;23.826;2023-02-13T01:07:02;95510.19;;;-0.85;70.87
61870;BME280;47810;42.264;23.826;2023-02-13T01:09:28;95518.00;;;-0.82;70.99
61870;BME280;47810;42.264;23.826;2023-02-13T01:11:53;95523.34;;;-0.51;70.71
61870;BME280;47810;42.264;23.826;2023-02-13T01:14:19;95519.91;;;-0.41;69.64
61870;BME280;47810;42.264;23.826;2023-02-13T01:16:44;95523.34;;;-0.51;69.68
61870;BME280;47810;42.264;23.826;2023-02-13T01:19:11;95523.22;;;-0.76;70.76
61870;BME280;47810;42.264;23.826;2023-02-13T01:21:36;95517.13;;;-0.78;70.97
61870;BME280;47810;42.264;23.826;2023-02-13T01:24:03;95526.72;;;-0.61;71.10
61870;BME280;47810;42.264;23.826;2023-02-13T01:26:28;95529.31;;;-0.64;70.87
61870;BME280;47810;42.264;23.826;2023-02-13T01:28:54;95525.06;;;-0.50;70.76
61870;BME280;47810;42.264;23.826;2023-02-13T01:31:20;95523.38;;;-0.30;69.96
61870;BME280;47810;42.264;23.826;2023-02-13T01:33:47;95526.81;;;-0.40;70.36
61870;BME280;47810;42.264;23.826;2023-02-13T01:36:12;95518.16;;;-0.51;70.64
61870;BME280;47810;42.264;23.826;2023-02-13T01:38:40;95524.97;;;-0.68;70.99
61870;BME280;47810;42.264;23.826;2023-02-13T01:41:06;95527.72;;;-0.35;70.91
61870;BME280;47810;42.264;23.826;2023-02-13T01:46:18;95516.31;;;-0.77;72.21
61870;BME280;47810;42.264;23.826;2023-02-13T01:48:45;95519.69;;;-0.84;72.43
61870;BME280;47810;42.264;23.826;2023-02-13T01:51:13;95511.06;;;-0.86;72.34
61870;BME280;47810;42.264;23.826;2023-02-13T01:53:43;95505.06;;;-0.80;72.78
61870;BME280;47810;42.264;23.826;2023-02-13T01:56:16;95510.16;;;-0.92;73.17
61870;BME280;47810;42.264;23.826;2023-02-13T01:58:43;95505.81;;;-0.95;72.64
61870;BME280;47810;42.264;23.826;2023-02-13T02:01:10;95509.34;;;-0.81;71.67
61870;BME280;47810;42.264;23.826;2023-02-13T02:06:01;95518.84;;;-0.86;71.00
61870;BME280;47810;42.264;23.826;2023-02-13T02:08:27;95519.72;;;-0.78;70.87
61870;BME280;47810;42.264;23.826;2023-02-13T02:10:54;95524.91;;;-0.78;70.92
61870;BME280;47810;42.264;23.826;2023-02-13T02:13:20;95528.34;;;-0.85;70.68
61870;BME280;47810;42.264;23.826;2023-02-13T02:15:46;95530.94;;;-0.86;70.73
61870;BME280;47810;42.264;23.826;2023-02-13T02:18:16;95528.44;;;-0.66;69.82
61870;BME280;47810;42.264;23.826;2023-02-13T02:23:26;95524.97;;;-0.65;69.43
61870;BME280;47810;42.264;23.826;2023-02-13T02:33:48;95534.50;;;-0.58;68.69
61870;BME280;47810;42.264;23.826;2023-02-13T02:38:56;95541.44;;;-0.56;69.30
61870;BME280;47810;42.264;23.826;2023-02-13T02:41:39;95552.63;;;-0.67;70.03
61870;BME280;47810;42.264;23.826;2023-02-13T02:46:35;95545.78;;;-0.56;70.75
61870;BME280;47810;42.264;23.826;2023-02-13T02:49:11;95544.84;;;-0.72;70.97
61870;BME280;47810;42.264;23.826;2023-02-13T02:52:18;95545.66;;;-0.78;71.42
61870;BME280;47810;42.264;23.826;2023-02-13T02:54:48;95545.69;;;-0.75;71.76
61870;BME280;47810;42.264;23.826;2023-02-13T02:57:55;95552.63;;;-0.71;71.32
61870;BME280;47810;42.264;23.826;2023-02-13T03:00:39;95550.97;;;-0.53;71.56
61870;BME280;47810;42.264;23.826;2023-02-13T03:03:25;95551.75;;;-0.68;72.35
61870;BME280;47810;42.264;23.826;2023-02-13T03:06:14;95540.41;;;-0.87;72.80
61870;BME280;47810;42.264;23.826;2023-02-13T03:08:41;95545.59;;;-0.93;72.62
61870;BME280;47810;42.264;23.826;2023-02-13T03:11:26;95554.28;;;-0.85;71.99
61870;BME280;47810;42.264;23.826;2023-02-13T03:14:11;95555.13;;;-0.86;72.45
61870;BME280;47810;42.264;23.826;2023-02-13T03:16:39;95556.00;;;-0.81;72.79
61870;BME280;47810;42.264;23.826;2023-02-13T03:19:46;95556.19;;;-0.47;72.20
61870;BME280;47810;42.264;23.826;2023-02-13T03:25:11;95556.94;;;-0.71;73.00
61870;BME280;47810;42.264;23.826;2023-02-13T03:27:50;95556.13;;;-0.59;72.30
61870;BME280;47810;42.264;23.826;2023-02-13T03:30:51;95552.59;;;-0.77;72.45
61870;BME280;47810;42.264;23.826;2023-02-13T03:35:52;95558.56;;;-0.91;73.04
61870;BME280;47810;42.264;23.826;2023-02-13T03:41:11;95555.97;;;-0.87;72.41
61870;BME280;47810;42.264;23.826;2023-02-13T03:46:29;95559.41;;;-0.91;72.97
61870;BME280;47810;42.264;23.826;2023-02-13T03:48:56;95567.25;;;-0.86;72.33
61870;BME280;47810;42.264;23.826;2023-02-13T03:51:48;95570.72;;;-0.78;72.29
61870;BME280;47810;42.264;23.826;2023-02-13T03:54:37;95571.56;;;-0.81;72.11
61870;BME280;47810;42.264;23.826;2023-02-13T03:57:19;95576.66;;;-1.02;72.82
61870;BME280;47810;42.264;23.826;2023-02-13T04:00:06;95566.28;;;-1.01;72.41
61870;BME280;47810;42.264;23.826;2023-02-13T04:02:33;95570.63;;;-0.95;72.59
61870;BME280;47810;42.264;23.826;2023-02-13T04:05:08;95575.03;;;-0.82;72.15
61870;BME280;47810;42.264;23.826;2023-02-13T04:07:37;95574.81;;;-1.12;73.32
61870;BME280;47810;42.264;23.826;2023-02-13T04:10:04;95566.13;;;-1.21;73.54
61870;BME280;47810;42.264;23.826;2023-02-13T04:12:36;95564.50;;;-1.03;73.30
61870;BME280;47810;42.264;23.826;2023-02-13T04:15:06;95567.91;;;-1.13;73.42
61870;BME280;47810;42.264;23.826;2023-02-13T04:17:56;95562.56;;;-1.38;74.19
61870;BME280;47810;42.264;23.826;2023-02-13T04:20:19;95555.69;;;-1.33;73.97
61870;BME280;47810;42.264;23.826;2023-02-13T04:22:45;95559.06;;;-1.38;73.75
61870;BME280;47810;42.264;23.826;2023-02-13T04:25:12;95564.25;;;-1.43;74.14
61870;BME280;47810;42.264;23.826;2023-02-13T04:27:39;95559.09;;;-1.40;74.35
61870;BME280;47810;42.264;23.826;2023-02-13T04:30:04;95566.91;;;-1.32;73.94
61870;BME280;47810;42.264;23.826;2023-02-13T04:32:30;95570.28;;;-1.43;73.98
61870;BME280;47810;42.264;23.826;2023-02-13T04:34:55;95572.94;;;-1.32;73.59
61870;BME280;47810;42.264;23.826;2023-02-13T04:37:21;95567.91;;;-1.13;73.01
61870;BME280;47810;42.264;23.826;2023-02-13T04:39:47;95566.13;;;-1.21;72.50
61870;BME280;47810;42.264;23.826;2023-02-13T04:42:12;95560.00;;;-1.33;72.70
61870;BME280;47810;42.264;23.826;2023-02-13T04:44:38;95561.66;;;-1.43;72.92
61870;BME280;47810;42.264;23.826;2023-02-13T04:47:03;95560.63;;;-1.63;73.42
61870;BME280;47810;42.264;23.826;2023-02-13T04:49:30;95561.41;;;-1.72;73.74
61870;BME280;47810;42.264;23.826;2023-02-13T04:51:56;95569.19;;;-1.68;73.47
61870;BME280;47810;42.264;23.826;2023-02-13T04:54:21;95571.00;;;-1.60;74.01
61870;BME280;47810;42.264;23.826;2023-02-13T04:56:47;95570.88;;;-1.73;74.14
61870;BME280;47810;42.264;23.826;2023-02-13T04:59:12;95560.28;;;-1.97;74.26
61870;BME280;47810;42.264;23.826;2023-02-13T05:01:38;95564.69;;;-1.89;74.22
61870;BME280;47810;42.264;23.826;2023-02-13T05:04:03;95566.38;;;-1.91;74.42
61870;BME280;47810;42.264;23.826;2023-02-13T05:06:29;95557.66;;;-2.02;74.68
61870;BME280;47810;42.264;23.826;2023-02-13T05:08:55;95564.56;;;-2.01;74.88
61870;BME280;47810;42.264;23.826;2023-02-13T05:11:21;95563.59;;;-2.11;75.05
61870;BME280;47810;42.264;23.826;2023-02-13T05:13:47;95558.53;;;-2.00;75.10
61870;BME280;47810;42.264;23.826;2023-02-13T05:16:13;95560.16;;;-2.09;74.90
61870;BME280;47810;42.264;23.826;2023-02-13T05:18:38;95567.94;;;-2.06;74.81
61870;BME280;47810;42.264;23.826;2023-02-13T05:21:04;95567.16;;;-1.99;74.41
61870;BME280;47810;42.264;23.826;2023-02-13T05:23:48;95561.09;;;-2.04;74.48
61870;BME280;47810;42.264;23.826;2023-02-13T05:26:13;95563.78;;;-1.95;73.94
61870;BME280;47810;42.264;23.826;2023-02-13T05:28:39;95567.16;;;-1.99;73.79
61870;BME280;47810;42.264;23.826;2023-02-13T05:31:23;95570.47;;;-2.13;74.29
61870;BME280;47810;42.264;23.826;2023-02-13T05:33:48;95577.38;;;-2.15;74.84
61870;BME280;47810;42.264;23.826;2023-02-13T05:36:14;95581.72;;;-2.09;74.66
61870;BME280;47810;42.264;23.826;2023-02-13T05:38:39;95591.41;;;-1.91;73.68
61870;BME280;47810;42.264;23.826;2023-02-13T05:41:05;95585.47;;;-1.81;72.55
61870;BME280;47810;42.264;23.826;2023-02-13T05:43:31;95587.78;;;-2.08;73.18
61870;BME280;47810;42.264;23.826;2023-02-13T05:46:06;95597.16;;;-2.18;73.90
61870;BME280;47810;42.264;23.826;2023-02-13T05:48:32;95591.81;;;-2.33;74.49
61870;BME280;47810;42.264;23.826;2023-02-13T05:50:58;95602.91;;;-2.42;74.77
61870;BME280;47810;42.264;23.826;2023-02-13T05:53:23;95608.19;;;-2.33;74.88
61870;BME280;47810;42.264;23.826;2023-02-13T05:55:49;95599.59;;;-2.29;74.72
61870;BME280;47810;42.264;23.826;2023-02-13T05:58:17;95603.34;;;-2.05;73.79
61870;BME280;47810;42.264;23.826;2023-02-13T06:00:42;95607.41;;;-2.26;73.61
61870;BME280;47810;42.264;23.826;2023-02-13T06:03:08;95597.91;;;-2.27;74.44
61870;BME280;47810;42.264;23.826;2023-02-13T06:05:33;95610.06;;;-2.20;74.24
61870;BME280;47810;42.264;23.826;2023-02-13T06:07:59;95610.06;;;-2.20;74.28
61870;BME280;47810;42.264;23.826;2023-02-13T06:10:24;95612.56;;;-2.27;74.70
61870;BME280;47810;42.264;23.826;2023-02-13T06:12:50;95608.38;;;-2.18;74.09
61870;BME280;47810;42.264;23.826;2023-02-13T06:15:15;95609.38;;;-2.05;72.88
61870;BME280;47810;42.264;23.826;2023-02-13T06:17:41;95596.72;;;-1.79;71.39
61870;BME280;47810;42.264;23.826;2023-02-13T06:20:06;95606.75;;;-2.06;72.15
61870;BME280;47810;42.264;23.826;2023-02-13T06:22:32;95603.19;;;-2.16;72.99
61870;BME280;47810;42.264;23.826;2023-02-13T06:24:57;95604.88;;;-2.20;73.62
61870;BME280;47810;42.264;23.826;2023-02-13T06:27:23;95607.56;;;-2.12;73.67
61870;BME280;47810;42.264;23.826;2023-02-13T06:29:49;95603.28;;;-2.12;73.38
61870;BME280;47810;42.264;23.826;2023-02-13T06:32:14;95608.44;;;-2.12;73.51
61870;BME280;47810;42.264;23.826;2023-02-13T06:34:40;95614.50;;;-2.11;73.86
61870;BME280;47810;42.264;23.826;2023-02-13T06:37:05;95608.47;;;-2.08;74.12
61870;BME280;47810;42.264;23.826;2023-02-13T06:39:31;95606.81;;;-2.03;74.10
61870;BME280;47810;42.264;23.826;2023-02-13T06:41:56;95613.75;;;-1.99;74.03
61870;BME280;47810;42.264;23.826;2023-02-13T06:44:21;95613.75;;;-1.99;74.27
61870;BME280;47810;42.264;23.826;2023-02-13T06:46:47;95612.13;;;-1.91;74.38
61870;BME280;47810;42.264;23.826;2023-02-13T06:49:12;95620.00;;;-1.79;74.13
61870;BME280;47810;42.264;23.826;2023-02-13T06:51:38;95614.63;;;-1.97;75.78
61870;BME280;47810;42.264;23.826;2023-02-13T06:54:03;95619.75;;;-2.03;77.00
61870;BME280;47810;42.264;23.826;2023-02-13T06:56:29;95619.78;;;-2.02;77.52
61870;BME280;47810;42.264;23.826;2023-02-13T06:58:54;95618.91;;;-2.01;77.68
61870;BME280;47810;42.264;23.826;2023-02-13T07:01:21;95615.56;;;-1.92;77.30
61870;BME280;47810;42.264;23.826;2023-02-13T07:03:47;95620.84;;;-1.83;77.07
61870;BME280;47810;42.264;23.826;2023-02-13T07:06:16;95622.31;;;-2.03;78.87
61870;BME280;47810;42.264;23.826;2023-02-13T07:08:42;95624.13;;;-1.96;78.80
61870;BME280;47810;42.264;23.826;2023-02-13T07:11:08;95609.53;;;-1.90;77.94
61870;BME280;47810;42.264;23.826;2023-02-13T07:13:33;95619.03;;;-1.90;77.57
61870;BME280;47810;42.264;23.826;2023-02-13T07:15:59;95615.59;;;-1.89;77.91
61870;BME280;47810;42.264;23.826;2023-02-13T07:18:26;95621.59;;;-1.92;78.06
61870;BME280;47810;42.264;23.826;2023-02-13T07:20:52;95620.81;;;-1.84;78.63
61870;BME280;47810;42.264;23.826;2023-02-13T07:23:17;95632.84;;;-1.88;77.74
61870;BME280;47810;42.264;23.826;2023-02-13T07:25:44;95629.47;;;-1.81;77.47
61870;BME280;47810;42.264;23.826;2023-02-13T07:28:14;95631.41;;;-1.61;77.20
61870;BME280;47810;42.264;23.826;2023-02-13T07:30:40;95633.94;;;-1.68;77.14
61870;BME280;47810;42.264;23.826;2023-02-13T07:33:05;95633.13;;;-1.63;77.41
61870;BME280;47810;42.264;23.826;2023-02-13T07:35:31;95628.94;;;-1.51;77.70
61870;BME280;47810;42.264;23.826;2023-02-13T07:37:57;95630.56;;;-1.59;78.25
61870;BME280;47810;42.264;23.826;2023-02-13T07:40:24;95624.59;;;-1.53;77.44
61870;BME280;47810;42.264;23.826;2023-02-13T07:42:50;95632.34;;;-1.52;77.48
61870;BME280;47810;42.264;23.826;2023-02-13T07:45:15;95629.00;;;-1.43;76.80
61870;BME280;47810;42.264;23.826;2023-02-13T07:47:41;95629.78;;;-1.50;77.33
61870;BME280;47810;42.264;23.826;2023-02-13T07:50:08;95628.03;;;-1.51;76.91
61870;BME280;47810;42.264;23.826;2023-02-13T07:52:33;95636.75;;;-1.43;76.95
61870;BME280;47810;42.264;23.826;2023-02-13T07:55:01;95619.56;;;-1.35;76.89
61870;BME280;47810;42.264;23.826;2023-02-13T07:57:26;95622.13;;;-1.41;76.39
61870;BME280;47810;42.264;23.826;2023-02-13T07:59:52;95628.13;;;-1.42;76.11
61870;BME280;47810;42.264;23.826;2023-02-13T08:02:17;95618.78;;;-1.23;76.04
61870;BME280;47810;42.264;23.826;2023-02-13T08:04:43;95621.41;;;-1.22;75.51
61870;BME280;47810;42.264;23.826;2023-02-13T08:07:13;95620.59;;;-1.18;75.62
61870;BME280;47810;42.264;23.826;2023-02-13T08:09:38;95619.78;;;-1.07;76.10
61870;BME280;47810;42.264;23.826;2023-02-13T08:12:23;95616.38;;;-1.00;75.60
61870;BME280;47810;42.264;23.826;2023-02-13T08:14:51;95616.41;;;-0.97;75.41
61870;BME280;47810;42.264;23.826;2023-02-13T08:17:17;95622.41;;;-1.06;75.22
61870;BME280;47810;42.264;23.826;2023-02-13T08:19:42;95622.47;;;-0.98;75.55
61870;BME280;47810;42.264;23.826;2023-02-13T08:22:08;95613.88;;;-0.89;75.26
61870;BME280;47810;42.264;23.826;2023-02-13T08:24:34;95619.25;;;-0.60;74.46
61870;BME280;47810;42.264;23.826;2023-02-13T08:26:59;95611.44;;;-0.66;74.47
61870;BME280;47810;42.264;23.826;2023-02-13T08:29:25;95617.66;;;-0.37;74.19
61870;BME280;47810;42.264;23.826;2023-02-13T08:31:50;95599.56;;;-0.21;74.07
61870;BME280;47810;42.264;23.826;2023-02-13T08:34:16;95607.38;;;-0.08;73.83
61870;BME280;47810;42.264;23.826;2023-02-13T08:36:44;95597.91;;;0.05;73.05
61870;BME280;47810;42.264;23.826;2023-02-13T08:39:10;95609.22;;;0.27;71.65
61870;BME280;47810;42.264;23.826;2023-02-13T08:41:35;95594.53;;;0.43;71.76
61870;BME280;47810;42.264;23.826;2023-02-13T08:44:03;95598.91;;;0.75;71.94
61870;BME280;47810;42.264;23.826;2023-02-13T08:46:29;95596.28;;;1.02;70.55
61870;BME280;47810;42.264;23.826;2023-02-13T08:48:54;95589.34;;;1.29;70.09
61870;BME280;47810;42.264;23.826;2023-02-13T08:51:21;95591.94;;;1.27;68.20
61870;BME280;47810;42.264;23.826;2023-02-13T08:53:46;95596.16;;;1.73;68.34
61870;BME280;47810;42.264;23.826;2023-02-13T08:56:14;95590.84;;;2.03;68.11
61870;BME280;47810;42.264;23.826;2023-02-13T08:58:39;95581.03;;;2.48;65.03
61870;BME280;47810;42.264;23.826;2023-02-13T09:03:35;95577.31;;;2.85;64.00
61870;BME280;47810;42.264;23.826;2023-02-13T09:06:02;95581.34;;;3.21;63.74
61870;BME280;47810;42.264;23.826;2023-02-13T09:08:28;95568.94;;;3.43;62.38
61870;BME280;47810;42.264;23.826;2023-02-13T09:11:02;95569.91;;;3.33;60.52
61870;BME280;47810;42.264;23.826;2023-02-13T09:13:28;95573.88;;;3.70;62.07
61870;BME280;47810;42.264;23.826;2023-02-13T09:15:58;95565.47;;;4.18;61.40
61870;BME280;47810;42.264;23.826;2023-02-13T09:18:27;95569.69;;;4.28;59.35
61870;BME280;47810;42.264;23.826;2023-02-13T09:20:56;95561.59;;;4.45;58.98
61870;BME280;47810;42.264;23.826;2023-02-13T09:23:22;95567.44;;;4.64;58.73
61870;BME280;47810;42.264;23.826;2023-02-13T09:25:47;95560.56;;;4.57;58.74
61870;BME280;47810;42.264;23.826;2023-02-13T09:28:17;95555.94;;;4.76;56.95
61870;BME280;47810;42.264;23.826;2023-02-13T09:30:48;95556.28;;;4.51;58.02
61870;BME280;47810;42.264;23.826;2023-02-13T09:33:16;95554.56;;;5.06;57.73
61870;BME280;47810;42.264;23.826;2023-02-13T09:35:42;95548.00;;;5.33;56.06
61870;BME280;47810;42.264;23.826;2023-02-13T09:38:12;95552.72;;;5.60;55.11
61870;BME280;47810;42.264;23.826;2023-02-13T09:43:32;95555.47;;;5.03;56.60
61870;BME280;47810;42.264;23.826;2023-02-13T09:46:06;95542.75;;;5.79;55.19
61870;BME280;47810;42.264;23.826;2023-02-13T09:48:35;95540.63;;;6.40;53.79
61870;BME280;47810;42.264;23.826;2023-02-13T09:51:02;95537.53;;;6.62;52.56
61870;BME280;47810;42.264;23.826;2023-02-13T09:53:35;95527.56;;;6.78;52.36
61870;BME280;47810;42.264;23.826;2023-02-13T09:56:04;95528.72;;;6.64;51.08
61870;BME280;47810;42.264;23.826;2023-02-13T09:59:11;95530.47;;;6.25;52.34
61870;BME280;47810;42.264;23.826;2023-02-13T10:06:57;95523.94;;;6.82;52.39
61870;BME280;47810;42.264;23.826;2023-02-13T10:14:48;95516.00;;;8.15;46.52
61870;BME280;47810;42.264;23.826;2023-02-13T10:17:20;95517.63;;;8.20;48.39
61870;BME280;47810;42.264;23.826;2023-02-13T10:20:06;95505.25;;;8.53;47.87
61870;BME280;47810;42.264;23.826;2023-02-13T10:22:34;95496.13;;;8.35;46.40
61870;BME280;47810;42.264;23.826;2023-02-13T10:27:57;95493.50;;;8.65;44.98
61870;BME280;47810;42.264;23.826;2023-02-13T10:30:27;95482.28;;;8.58;46.11
61870;BME280;47810;42.264;23.826;2023-02-13T10:35:39;95471.47;;;9.45;43.46
61870;BME280;47810;42.264;23.826;2023-02-13T10:38:14;95466.31;;;9.42;44.28
61870;BME280;47810;42.264;23.826;2023-02-13T10:40:46;95470.47;;;8.98;42.32
61870;BME280;47810;42.264;23.826;2023-02-13T10:43:18;95461.19;;;8.30;42.27
61870;BME280;47810;42.264;23.826;2023-02-13T10:48:17;95447.97;;;9.39;41.84
61870;BME280;47810;42.264;23.826;2023-02-13T10:53:41;95447.72;;;9.22;42.19
61870;BME280;47810;42.264;23.826;2023-02-13T10:56:19;95446.84;;;8.68;43.76
61870;BME280;47810;42.264;23.826;2023-02-13T10:58:59;95439.91;;;8.92;41.08
61870;BME280;47810;42.264;23.826;2023-02-13T11:04:16;95434.63;;;7.80;43.34
61870;BME280;47810;42.264;23.826;2023-02-13T11:07:01;95432.31;;;8.28;45.70
61870;BME280;47810;42.264;23.826;2023-02-13T11:09:37;95424.53;;;8.80;43.68
61870;BME280;47810;42.264;23.826;2023-02-13T11:12:23;95415.91;;;9.75;42.28
61870;BME280;47810;42.264;23.826;2023-02-13T11:17:38;95410.09;;;10.12;40.53
61870;BME280;47810;42.264;23.826;2023-02-13T11:20:07;95403.09;;;10.57;41.73
61870;BME280;47810;42.264;23.826;2023-02-13T11:22:49;95411.00;;;9.89;39.11
61870;BME280;47810;42.264;23.826;2023-02-13T11:32:58;95385.63;;;9.85;40.50
61870;BME280;47810;42.264;23.826;2023-02-13T11:38:12;95376.03;;;10.72;40.09
61870;BME280;47810;42.264;23.826;2023-02-13T11:45:45;95370.81;;;10.92;40.38
61870;BME280;47810;42.264;23.826;2023-02-13T11:48:21;95367.28;;;10.49;39.70
61870;BME280;47810;42.264;23.826;2023-02-13T11:50:52;95364.41;;;10.98;39.37
61870;BME280;47810;42.264;23.826;2023-02-13T11:53:29;95360.75;;;11.21;37.25
61870;BME280;47810;42.264;23.826;2023-02-13T11:56:04;95353.19;;;11.32;40.39
61870;BME280;47810;42.264;23.826;2023-02-13T11:58:30;95347.41;;;11.82;37.80
61870;BME280;47810;42.264;23.826;2023-02-13T12:01:10;95343.88;;;12.02;38.96
61870;BME280;47810;42.264;23.826;2023-02-13T12:09:10;95333.13;;;11.86;38.51
61870;BME280;47810;42.264;23.826;2023-02-13T12:11:44;95330.25;;;11.72;38.16
61870;BME280;47810;42.264;23.826;2023-02-13T12:14:18;95328.81;;;11.84;38.75
61870;BME280;47810;42.264;23.826;2023-02-13T12:19:23;95322.94;;;12.34;35.38
61870;BME280;47810;42.264;23.826;2023-02-13T12:21:56;95314.28;;;11.55;38.14
61870;BME280;47810;42.264;23.826;2023-02-13T12:37:48;95311.38;;;11.61;37.75
61870;BME280;47810;42.264;23.826;2023-02-13T12:43:24;95311.03;;;11.87;35.80
61870;BME280;47810;42.264;23.826;2023-02-13T12:48:48;95302.19;;;11.68;38.60
61870;BME280;47810;42.264;23.826;2023-02-13T13:26:56;95281.31;;;11.24;36.80
61870;BME280;47810;42.264;23.826;2023-02-13T13:29:26;95282.53;;;10.96;38.01
61870;BME280;47810;42.264;23.826;2023-02-13T13:32:04;95277.13;;;10.59;37.41
61870;BME280;47810;42.264;23.826;2023-02-13T13:37:12;95270.13;;;10.78;38.77
61870;BME280;47810;42.264;23.826;2023-02-13T13:39:51;95278.28;;;10.31;38.65
61870;BME280;47810;42.264;23.826;2023-02-13T13:42:37;95282.06;;;10.24;39.18
61870;BME280;47810;42.264;23.826;2023-02-13T13:45:41;95289.31;;;10.19;38.64
61870;BME280;47810;42.264;23.826;2023-02-13T13:50:29;95286.94;;;9.45;39.44
61870;BME280;47810;42.264;23.826;2023-02-13T13:58:47;95280.88;;;9.20;41.14
61870;BME280;47810;42.264;23.826;2023-02-13T14:01:24;95279.34;;;9.38;39.91
61870;BME280;47810;42.264;23.826;2023-02-13T14:04:00;95280.47;;;9.07;41.53
61870;BME280;47810;42.264;23.826;2023-02-13T14:11:54;95283.56;;;9.18;42.82
61870;BME280;47810;42.264;23.826;2023-02-13T14:16:58;95280.47;;;8.82;43.57
61870;BME280;47810;42.264;23.826;2023-02-13T14:19:40;95283.50;;;8.46;41.58
61870;BME280;47810;42.264;23.826;2023-02-13T14:24:57;95278.31;;;7.90;42.54
61870;BME280;47810;42.264;23.826;2023-02-13T14:27:24;95278.31;;;7.90;42.50
61870;BME280;47810;42.264;23.826;2023-02-13T14:29:54;95282.81;;;7.29;42.92
61870;BME280;47810;42.264;23.826;2023-02-13T14:32:30;95285.84;;;7.44;43.18
61870;BME280;47810;42.264;23.826;2023-02-13T14:37:47;95278.56;;;7.24;44.95
61870;BME280;47810;42.264;23.826;2023-02-13T14:42:50;95279.06;;;7.08;43.83
61870;BME280;47810;42.264;23.826;2023-02-13T14:45:26;95279.16;;;7.34;44.66
61870;BME280;47810;42.264;23.826;2023-02-13T14:47:54;95281.91;;;7.59;43.85
61870;BME280;47810;42.264;23.826;2023-02-13T14:50:27;95269.78;;;7.26;43.18
61870;BME280;47810;42.264;23.826;2023-02-13T14:55:40;95276.06;;;6.90;43.24
61870;BME280;47810;42.264;23.826;2023-02-13T14:58:07;95269.19;;;6.55;45.28
61870;BME280;47810;42.264;23.826;2023-02-13T15:03:47;95269.41;;;6.13;46.99
61870;BME280;47810;42.264;23.826;2023-02-13T15:08:52;95267.47;;;5.47;48.74
61870;BME280;47810;42.264;23.826;2023-02-13T15:17:13;95267.56;;;4.60;51.57
61870;BME280;47810;42.264;23.826;2023-02-13T15:19:48;95277.00;;;4.67;50.94
61870;BME280;47810;42.264;23.826;2023-02-13T15:25:05;95273.53;;;4.66;51.00
61870;BME280;47810;42.264;23.826;2023-02-13T15:27:39;95277.88;;;4.21;52.71
61870;BME280;47810;42.264;23.826;2023-02-13T15:30:21;95277.63;;;3.85;53.23
61870;BME280;47810;42.264;23.826;2023-02-13T15:33:01;95281.25;;;3.75;53.71
61870;BME280;47810;42.264;23.826;2023-02-13T15:35:31;95285.19;;;3.48;54.44
61870;BME280;47810;42.264;23.826;2023-02-13T15:37:58;95287.03;;;3.41;54.55
61870;BME280;47810;42.264;23.826;2023-02-13T15:40:29;95278.50;;;3.29;54.84
61870;BME280;47810;42.264;23.826;2023-02-13T15:42:57;95287.19;;;3.29;54.86
61870;BME280;47810;42.264;23.826;2023-02-13T15:55:17;95293.22;;;2.66;57.41
61870;BME280;47810;42.264;23.826;2023-02-13T16:08:52;95293.00;;;2.06;59.09
61870;BME280;47810;42.264;23.826;2023-02-13T16:54:27;95298.50;;;1.74;61.25
61870;BME280;47810;42.264;23.826;2023-02-13T17:00:06;95303.59;;;1.84;60.39
61870;BME280;47810;42.264;23.826;2023-02-13T17:02:41;95299.25;;;1.85;60.22
61870;BME280;47810;42.264;23.826;2023-02-13T17:10:04;95289.09;;;1.54;61.65
61870;BME280;47810;42.264;23.826;2023-02-13T17:12:34;95299.69;;;1.30;62.16
61870;BME280;47810;42.264;23.826;2023-02-13T17:17:36;95280.50;;;1.48;61.20
61870;BME280;47810;42.264;23.826;2023-02-13T17:20:06;95280.44;;;1.52;61.06
61870;BME280;47810;42.264;23.826;2023-02-13T17:25:01;95278.13;;;1.12;62.36
61870;BME280;47810;42.264;23.826;2023-02-13T17:35:44;95277.31;;;1.01;61.45
61870;BME280;47810;42.264;23.826;2023-02-13T17:38:10;95273.78;;;1.10;60.49